Terminal Aerodrome Forecast
Issued by NWS

Home | Current Version | Previous Version | Text Only | Print | Product List | Glossary On
Versions: 1 2 3 4 5 6 7 8 9 10 11 12 13 14 15 16 17 18 19 20 21 22 23 24 25 26
000
FTUS46 KSEW 242110 AAA
TAFSEA
TAF AMD
KSEA 242110Z 2421/2524 31006KT P6SM FEW045 SCT120 SCT200
     FM250300 VRB03KT P6SM BKN120 OVC200
     FM250900 VRB03KT P6SM SCT050 OVC100
     FM251400 VRB03KT P6SM SCT009 BKN050 OVC100
     FM251800 22005KT P6SM BKN015 OVC050 PROB30 2518/2524 -RA=

USA.gov is the U.S. government's official web portal to all federal, state and local government web resources and services.